Hlavní strana
METAR-TAF:

METAR-TAF

Letiště :

Pécs, Maďarsko

zeměpisná šířka: 46-06N, zeměpisná délka: 018-14E, výška: 201 m

Aktuální stav počasí

Zpráva byla vytvořena před 20 minutami, v 14:45 UTC
Severní vítr 8 kt
Teplota 9°C
Vlhkost vzduchu 40%
Tlak 1024 hPa
Viditelnost 10 km a více
Žádná oblačnost pod 1500 m, nevyskytují se cumulonimby.

METAR: LHPP 191445Z 36008KT CAVOK 09/M04 Q1024

Čas: 16:05 (15:05 UTC)

Předpověď počasí

Zpráva byla vytvořena před 50 minutami, v 14:15 UTC
Předpověď platná od 19 v 15 UTC do 19 v 24 UTC
Severní vítr 10 kt
Viditelnost 10 km a více
Žádná oblačnost pod 1500 m, nevyskytují se cumulonimby.
Změna
od 19 v 17 UTC do 19 v 20 UTC
Severní vítr 5 kt

TAF: LHPP 191415Z 1915/1924 01010KT CAVOK BECMG 1917/1920 01005KT

Stav a předpovědi počasí z více než 4 000 letišť (zprávy METAR a TAF).

Červené a žluté tečky na mapě představují dostupné meteorologické stanice.

Když kurzor umístíte na tečku, zobrazí se název stanice.

Pak kliknutím zobrazíte stav a předpověď počasí.

Chcete-li změnit mapu, kliknutím na zelené tlačítko se znaménkem +mapu přiblížíte, kliknutím na zelené tlačítko se znaménkem – mapu oddálíte a kliknutím na zelené šipky přejdete na sousední mapy.


METAR-TAF: